Latest Coastal Weather Observations for Edithburgh

IDS60701

Issued at 2:25 am CST Wednesday 30 July 2014 (issued every 10 minutes, with the page automatically refreshed every 10 minutes)

About coastal observations | Map of coastal stations | Coastal observations for SA | Marine services | Other Formats
Station Details ID: 022046 Name: EDITHBURGH Lat: -35.11 Lon: 137.74 Height: 6.0 m
Data from the previous 72 hours. | See also: Recent months at Edithburgh
Date/Time
CST
Temp

°C
Wind Pressure Rain
since 9am
mm
Weather Cloud Vis
km
Sea
Height
m
Swell
Dir
 
Speed
knots
Gust
knots
hPa Trend Height
m
Period
s
Dir
30/02:00am 12.2 NW 10 12 1017.4 - 1.8 - - - - - - -
30/01:30am 12.4 NW 10 14 1017.5 - 1.8 - - - - - - -
30/01:00am 12.2 NW 10 13 1017.4 - 1.6 - - - - - - -
30/12:30am 12.2 NNW 10 13 1017.5 - 1.6 - - - - - - -
30/12:00am 12.4 NW 11 15 1017.7 - 1.6 - - - - - - -
 
Date/Time
CST
Temp

°C
Wind Pressure Rain
since 9am
mm
Weather Cloud Vis
km
Sea
Height
m
Swell
Dir
 
Speed
knots
Gust
knots
hPa Trend Height
m
Period
s
Dir
29/11:30pm 12.5 NW 11 13 1017.7 - 1.6 - - - - - - -
29/11:00pm 12.7 NNW 11 14 1017.7 - 1.6 - - - - - - -
29/10:30pm 13.0 NW 10 14 1017.8 - 1.6 - - - - - - -
29/10:00pm 13.3 NW 12 15 1017.7 - 1.6 - - - - - - -
29/09:30pm 13.7 WNW 12 15 1017.5 - 1.6 - - - - - - -
29/09:00pm 14.0 NW 13 18 1017.4 - 1.6 - - - - - - -
29/08:30pm 13.8 NW 14 18 1017.3 - 1.6 - - - - - - -
29/08:00pm 13.8 WNW 12 17 1017.0 - 1.6 - - - - - - -
29/07:30pm 13.7 NW 13 16 1016.6 - 1.6 - - - - - - -
29/07:00pm 13.9 NW 12 15 1016.6 - 1.6 - - - - - - -
29/06:30pm 13.7 NW 11 15 1016.5 - 1.6 - - - - - - -
29/06:00pm 13.8 WNW 15 18 1016.2 - 1.6 Recent precip. - - - - - -
29/05:30pm 13.9 W 20 28 1016.0 - 1.6 - - - - - - -
29/05:20pm 14.3 WNW 16 31 1016.0 - 1.4 - - - - - - -
29/05:00pm 15.0 NW 15 20 1015.5 - 0.8 - - - - - - -
29/04:30pm 15.0 NW 15 20 1015.3 - 0.8 - - - - - - -
29/04:00pm 15.5 NW 15 22 1015.1 - 0.8 - - - - - - -
29/03:30pm 15.8 WNW 16 22 1014.9 - 0.8 - - - - - - -
29/03:00pm 14.9 WNW 16 23 1015.0 - 0.8 Rain - - - - - -
29/02:30pm 15.3 NW 17 22 1014.8 - 0.0 - - - - - - -
29/02:00pm 15.7 NW 16 21 1014.6 - 0.0 - - - - - - -
29/01:30pm 15.7 NW 18 24 1014.6 - 0.0 - - - - - - -
29/01:00pm 16.1 NW 19 24 1014.3 - 0.0 - - - - - - -
29/12:30pm 16.1 NW 20 30 1014.4 - 0.0 - - - - - - -
29/12:00pm 16.7 NW 22 29 1014.7 - 0.0 - - - - - - -
29/11:46am 16.1 NW 22 32 1014.9 - 0.0 - - - - - - -
29/11:30am 16.2 NW 24 32 1015.0 - 0.0 - - - - - - -
29/11:00am 16.6 NW 21 28 1014.9 - 0.0 - - - - - - -
29/10:30am 15.9 NW 22 31 1014.9 - 0.0 - - - - - - -
29/10:21am 15.8 NW 21 31 1015.0 - 0.0 - - - - - - -
29/10:00am 15.0 NW 20 27 1014.8 - 0.0 - - - - - - -
29/09:30am 14.6 NW 20 26 1014.8 - 0.0 - - - - - - -
29/09:00am 14.1 NW 21 29 1014.6 - 0.0 - - - - - - -
29/08:30am 13.5 NW 19 27 1014.7 - 0.0 - - - - - - -
29/08:00am 12.9 NW 17 23 1014.4 - 0.0 - - - - - - -
29/07:30am 12.7 NNW 18 24 1014.4 - 0.0 - - - - - - -
29/07:00am 12.3 NNW 17 21 1014.4 - 0.0 - - - - - - -
29/06:30am 12.6 NNW 14 18 1014.4 - 0.0 - - - - - - -
29/06:00am 12.5 NNW 14 17 1014.2 - 0.0 - - - - - - -
29/05:30am 12.2 NNW 14 18 1013.8 - 0.0 - - - - - - -
29/05:00am 12.2 NNW 13 18 1014.3 - 0.0 - - - - - - -
29/04:30am 12.4 NW 16 22 1014.2 - 0.0 - - - - - - -
29/04:00am 12.3 NW 17 21 1013.8 - 0.0 - - - - - - -
29/03:30am 12.2 NW 16 20 1013.7 - 0.0 - - - - - - -
29/03:00am 12.2 NW 17 23 1013.6 - 0.0 - - - - - - -
29/02:30am 12.6 NW 19 24 1013.5 - 0.0 - - - - - - -
29/02:00am 12.4 NW 17 22 1013.7 - 0.0 - - - - - - -
29/01:30am 12.2 NW 16 21 1014.1 - 0.0 - - - - - - -
29/01:00am 12.3 NW 16 22 1014.4 - 0.0 - - - - - - -
29/12:30am 12.2 NW 15 20 1014.6 - 0.0 - - - - - - -
29/12:00am 12.0 NW 14 17 1015.0 - 0.0 - - - - - - -
 
Date/Time
CST
Temp

°C
Wind Pressure Rain
since 9am
mm
Weather Cloud Vis
km
Sea
Height
m
Swell
Dir
 
Speed
knots
Gust
knots
hPa Trend Height
m
Period
s
Dir
28/11:30pm 11.8 NW 13 18 1015.4 - 0.0 - - - - - - -
28/11:00pm 11.8 NW 13 16 1015.4 - 0.0 - - - - - - -
28/10:30pm 11.9 NW 13 16 1015.6 - 0.0 - - - - - - -
28/10:00pm 11.2 NNW 11 12 1015.7 - 0.0 - - - - - - -
28/09:30pm 11.1 NW 10 12 1016.0 - 0.0 - - - - - - -
28/09:00pm 11.0 NW 10 12 1016.0 - 0.0 - - - - - - -
28/08:30pm 9.3 NNW 7 8 1016.0 - 0.0 - - - - - - -
28/08:00pm 8.6 NNW 6 7 1015.9 - 0.0 - - - - - - -
28/07:30pm 10.0 N 7 8 1015.7 - 0.0 - - - - - - -
28/07:00pm 10.2 N 7 8 1015.5 - 0.0 - - - - - - -
28/06:30pm 11.3 NNW 8 9 1015.3 - 0.0 - - - - - - -
28/06:00pm 11.7 NNW 8 9 1015.2 - 0.0 - - - - - - -
28/05:30pm 12.9 NNW 9 11 1015.1 - 0.0 - - - - - - -
28/05:00pm 14.2 NNW 12 16 1015.0 - 0.0 - - - - - - -
28/04:30pm 15.1 NW 14 17 1015.0 - 0.0 - - - - - - -
28/04:00pm 15.7 NW 16 21 1014.8 - 0.0 - - - - - - -
28/03:30pm 15.9 NW 17 22 1014.8 - 0.0 - - - - - - -
28/03:00pm 15.9 NW 18 24 1014.6 - 0.0 - - - - - - -
28/02:30pm 16.2 NW 17 23 1015.0 - 0.0 - - - - - - -
28/02:00pm 16.4 NW 16 21 1015.0 - 0.0 - - - - - - -
28/01:30pm 16.6 WNW 17 23 1015.3 - 0.0 - - - - - - -
28/01:00pm 16.6 NW 15 19 1015.9 - 0.0 - - - - - - -
28/12:30pm 16.1 NW 15 20 1016.5 - 0.0 - - - - - - -
28/12:00pm 16.3 NW 15 20 1016.9 - 0.0 - - - - - - -
28/11:30am 16.3 WNW 14 19 1017.2 - 0.0 - - - - - - -
28/11:00am 15.2 WNW 14 17 1017.3 - 0.0 - - - - - - -
28/10:30am 14.9 NW 12 15 1017.6 - 0.0 - - - - - - -
28/10:00am 14.1 NNW 9 12 1017.9 - 0.0 - - - - - - -
28/09:30am 12.8 NNW 7 9 1018.2 - 0.0 - - - - - - -
28/09:00am 10.4 NNW 5 6 1018.1 - 0.2 - - - - - - -
28/08:30am 8.8 NNW 6 7 1017.9 - 0.2 - - - - - - -
28/08:00am 7.7 N 6 7 1017.7 - 0.2 - - - - - - -
28/07:30am 8.0 N 7 8 1017.6 - 0.2 - - - - - - -
28/07:00am 7.8 NNW 7 8 1017.2 - 0.0 - - - - - - -
28/06:30am 6.7 NNW 5 6 1017.0 - 0.0 - - - - - - -
28/06:00am 7.2 NNW 5 6 1017.0 - 0.0 - - - - - - -
28/05:30am 7.0 N 5 5 1016.9 - 0.0 - - - - - - -
28/05:00am 7.7 NNW 4 5 1017.0 - 0.0 - - - - - - -
28/04:30am 8.1 NW 5 6 1017.2 - 0.0 - - - - - - -
28/04:00am 7.7 NNW 4 5 1017.2 - 0.0 - - - - - - -
28/03:30am 8.4 NNW 3 5 1017.0 - 0.0 - - - - - - -
28/03:00am 8.2 NNW 3 4 1017.0 - 0.0 - - - - - - -
28/02:30am 7.6 NNW 5 6 1017.1 - 0.0 - - - - - - -
28/02:00am 8.6 NNW 3 5 1017.4 - 0.0 - - - - - - -
28/01:30am 8.5 N 2 3 1017.4 - 0.0 - - - - - - -
28/01:00am 8.1 NNW 4 5 1017.3 - 0.0 - - - - - - -
28/12:30am 7.9 NNW 6 7 1017.4 - 0.0 - - - - - - -
28/12:00am 9.0 NW 7 8 1017.8 - 0.0 - - - - - - -
 
Date/Time
CST
Temp

°C
Wind Pressure Rain
since 9am
mm
Weather Cloud Vis
km
Sea
Height
m
Swell
Dir
 
Speed
knots
Gust
knots
hPa Trend Height
m
Period
s
Dir
27/11:30pm 9.3 NNW 8 9 1017.8 - 0.0 - - - - - - -
27/11:00pm 7.2 NNW 7 8 1018.1 - 0.0 - - - - - - -
27/10:30pm 7.8 NNW 5 6 1018.2 - 0.0 - - - - - - -
27/10:00pm 8.6 NNW 7 8 1018.0 - 0.0 - - - - - - -
27/09:30pm 10.0 N 9 10 1018.1 - 0.0 - - - - - - -
27/09:00pm 9.4 N 6 7 1018.3 - 0.0 - - - - - - -
27/08:30pm 10.2 N 6 8 1018.3 - 0.0 - - - - - - -
27/08:00pm 10.4 N 5 6 1018.3 - 0.0 - - - - - - -
27/07:30pm 11.5 N 6 8 1018.3 - 0.0 - - - - - - -
27/07:00pm 12.7 N 7 10 1018.2 - 0.0 - - - - - - -
27/06:30pm 12.9 N 6 9 1018.2 - 0.0 - - - - - - -
27/06:00pm 13.4 N 6 9 1018.2 - 0.0 - - - - - - -
27/05:30pm 14.0 N 7 9 1018.1 - 0.0 - - - - - - -
27/05:00pm 14.3 N 5 7 1018.0 - 0.0 - - - - - - -
27/04:30pm 15.3 N 7 10 1018.1 - 0.0 - - - - - - -
27/04:00pm 15.7 N 10 14 1018.0 - 0.0 - - - - - - -
27/03:30pm 16.1 N 12 16 1018.2 - 0.0 - - - - - - -
27/03:00pm 16.0 N 10 13 1018.3 - 0.0 - - - - - - -
27/02:30pm 16.4 N 11 15 1018.7 - 0.0 - - - - - - -
27/02:00pm 16.0 N 11 16 1018.7 - 0.0 - - - - - - -
27/01:30pm 15.5 N 12 17 1019.1 - 0.0 - - - - - - -
27/01:00pm 15.5 NNW 13 18 1019.6 - 0.0 - - - - - - -
27/12:30pm 15.3 NNW 16 20 1020.1 - 0.0 - - - - - - -
27/12:00pm 15.4 N 15 20 1020.5 - 0.0 - - - - - - -
27/11:30am 14.6 N 13 19 1021.1 - 0.0 - - - - - - -
27/11:00am 14.5 N 14 18 1021.6 - 0.0 - - - - - - -
27/10:30am 14.0 N 13 16 1021.9 - 0.0 - - - - - - -
27/10:00am 13.0 N 12 15 1022.2 - 0.0 - - - - - - -
27/09:30am 12.5 N 11 14 1022.5 - 0.0 - - - - - - -
27/09:00am 11.7 N 12 15 1022.4 - 0.0 - - - - - - -
27/08:30am 10.5 N 10 13 1022.6 - 0.0 - - - - - - -
27/08:00am 9.7 N 10 12 1022.7 - 0.0 - - - - - - -
27/07:30am 9.3 N 9 11 1022.8 - 0.0 - - - - - - -
27/07:00am 9.1 N 9 12 1022.7 - 0.0 - - - - - - -
27/06:30am 9.3 N 8 10 1022.4 - 0.0 - - - - - - -
27/06:00am 8.2 N 6 8 1022.4 - 0.0 - - - - - - -
27/05:30am 7.8 N 5 6 1022.6 - 0.0 - - - - - - -
27/05:00am 7.7 N 5 6 1022.7 - 0.0 - - - - - - -
27/04:30am 7.5 N 5 6 1022.7 - 0.0 - - - - - - -
27/04:00am 8.1 N 7 9 1022.9 - 0.0 - - - - - - -
27/03:30am 7.7 N 6 8 1023.3 - 0.0 - - - - - - -
27/03:00am 7.9 N 5 7 1023.6 - 0.0 - - - - - - -
27/02:30am 8.8 N 5 7 1023.9 - 0.0 - - - - - - -

Other Formats:

Comma delimited format used in spreadsheet applications
http://www.bom.gov.au/fwo/IDS60701/IDS60701.94809.axf

JavaScript Object Notation format (JSON) in row-major order
http://www.bom.gov.au/fwo/IDS60701/IDS60701.94809.json